Time;durP1;ratioP1;P1;durP2;ratioP2;P2;SDS_P1;SDS_P2;PMS_P1;PMS_P2;Temp;Humidity;BMP_temperature;BMP_pressure;BME280_temperature;BME280_humidity;BME280_pressure;Samples;Min_cycle;Max_cycle;Signal;HPM_P1;HPM_P2
2022/12/09 00:02:19;;;;;;;16.23;14.68;;;;;;;5.54;67.23;100553.91;5015020;28;20069;-68
2022/12/09 00:04:44;;;;;;;15.30;14.38;;;;;;;5.54;67.22;100553.91;5017297;28;20038;-69
2022/12/09 00:07:10;;;;;;;15.05;13.95;;;;;;;5.53;67.01;100559.50;5008425;28;20385;-69
2022/12/09 00:09:35;;;;;;;17.10;15.88;;;;;;;5.53;67.36;100560.31;5001319;28;20077;-69
2022/12/09 00:12:01;;;;;;;17.95;16.42;;;;;;;5.53;67.15;100557.66;4996883;28;20057;-73
2022/12/09 00:14:26;;;;;;;18.35;15.40;;;;;;;5.52;67.30;100558.69;4995903;28;20355;-71
2022/12/09 00:16:51;;;;;;;16.60;15.40;;;;;;;5.52;66.77;100553.34;4998983;28;20169;-69
2022/12/09 00:19:17;;;;;;;20.25;17.08;;;;;;;5.53;67.05;100554.16;5003364;28;20113;-69
2022/12/09 00:21:42;;;;;;;14.98;13.90;;;;;;;5.52;67.37;100553.34;5009861;28;20118;-68
2022/12/09 00:24:13;;;;;;;18.50;16.67;;;;;;;5.51;67.18;100551.69;5017313;28;20545;-69
2022/12/09 00:26:38;;;;;;;16.13;14.98;;;;;;;5.51;67.05;100546.31;5010096;28;20064;-69
2022/12/09 00:29:04;;;;;;;18.73;17.17;;;;;;;5.51;67.14;100545.50;5002387;28;20073;-73
2022/12/09 00:31:33;;;;;;;16.88;15.35;;;;;;;5.51;67.33;100548.19;5013632;28;20040;-69
2022/12/09 00:34:02;;;;;;;17.25;15.57;;;;;;;5.51;67.55;100551.69;5011780;28;20037;-68
2022/12/09 00:36:28;;;;;;;;;;;;;;;5.50;67.50;100550.03;5011694;28;20474;-67
2022/12/09 00:38:55;;;;;;;19.20;17.45;;;;;;;5.48;67.25;100546.75;5010008;28;19913;-68
2022/12/09 00:41:20;;;;;;;19.60;17.77;;;;;;;5.48;67.26;100552.13;5009811;28;20077;-67
2022/12/09 00:43:46;;;;;;;15.45;13.88;;;;;;;5.48;67.12;100554.78;4994443;28;20485;-68
2022/12/09 00:46:13;;;;;;;18.67;16.67;;;;;;;5.48;67.49;100557.47;5008121;28;20581;-69
2022/12/09 00:48:39;;;;;;;14.07;13.25;;;;;;;5.47;66.99;100545.13;5012524;28;20076;-69
2022/12/09 00:51:06;;;;;;;17.02;15.80;;;;;;;5.48;67.25;100553.97;5002272;28;20048;-72
2022/12/09 00:53:32;;;;;;;15.85;14.73;;;;;;;5.48;67.26;100554.78;5012061;28;20030;-69
2022/12/09 00:55:57;;;;;;;15.05;14.02;;;;;;;5.47;67.59;100553.16;5009240;28;20034;-69
2022/12/09 00:58:23;;;;;;;23.27;20.05;;;;;;;5.47;67.12;100553.16;5011386;28;20034;-69
2022/12/09 01:00:49;;;;;;;19.77;17.65;;;;;;;5.48;67.01;100559.34;5009546;28;20034;-69
2022/12/09 01:03:16;;;;;;;28.33;20.30;;;;;;;5.47;67.35;100550.47;5010613;28;20429;-69
2022/12/09 01:05:42;;;;;;;17.55;15.80;;;;;;;5.48;67.17;100540.59;5009670;28;20030;-69
2022/12/09 01:08:09;;;;;;;19.13;17.15;;;;;;;5.48;67.58;100553.97;5008964;28;20062;-73
2022/12/09 01:10:34;;;;;;;19.05;17.13;;;;;;;5.48;67.38;100551.28;5010579;28;20033;-69
2022/12/09 01:13:00;;;;;;;22.00;19.75;;;;;;;5.47;67.22;100549.63;5011991;28;20040;-69
2022/12/09 01:15:25;;;;;;;16.50;15.27;;;;;;;5.47;67.34;100547.81;5009485;28;20080;-69
2022/12/09 01:17:51;;;;;;;19.55;17.65;;;;;;;5.48;67.15;100549.44;5012014;28;20034;-69
2022/12/09 01:20:16;;;;;;;19.33;17.23;;;;;;;5.47;67.23;100550.47;5012071;28;20075;-70
2022/12/09 01:22:42;;;;;;;18.35;16.77;;;;;;;5.47;67.29;100553.16;5010440;28;20034;-69
2022/12/09 01:25:08;;;;;;;22.10;19.02;;;;;;;5.49;67.35;100560.97;5011219;28;20363;-69
2022/12/09 01:27:33;;;;;;;21.80;19.52;;;;;;;5.47;67.39;100563.03;5010668;28;20022;-69
2022/12/09 01:29:58;;;;;;;20.15;17.73;;;;;;;5.47;67.33;100555.84;5013375;28;20477;-69
2022/12/09 01:32:24;;;;;;;34.95;25.77;;;;;;;5.47;67.59;100563.88;5009229;28;20405;-70
2022/12/09 01:34:49;;;;;;;24.77;19.70;;;;;;;5.47;67.31;100555.84;5009905;28;20508;-73
2022/12/09 01:37:15;;;;;;;28.67;19.33;;;;;;;5.47;67.37;100561.19;5008142;28;20037;-69
2022/12/09 01:39:40;;;;;;;20.00;17.48;;;;;;;5.48;67.25;100562.00;5010956;28;20497;-69
2022/12/09 01:42:16;;;;;;;18.35;16.25;;;;;;;5.46;67.28;100562.22;5013244;28;20552;-68
2022/12/09 01:45:30;;;;;;;18.65;17.00;;;;;;;5.47;67.29;100568.38;5010339;28;20386;-68
2022/12/09 01:48:02;;;;;;;23.23;19.60;;;;;;;5.45;67.14;100560.59;5008850;28;20171;-69
2022/12/09 01:50:28;;;;;;;23.08;20.70;;;;;;;5.46;67.15;100564.88;5004412;28;20076;-69
2022/12/09 01:52:55;;;;;;;28.52;20.23;;;;;;;5.46;67.38;100566.75;5010736;28;20077;-68
2022/12/09 01:55:20;;;;;;;26.55;21.20;;;;;;;5.44;67.34;100561.59;4996874;28;20038;-69
2022/12/09 01:57:46;;;;;;;22.15;19.85;;;;;;;5.44;67.54;100564.28;5007396;28;20034;-70
2022/12/09 02:00:12;;;;;;;21.42;16.77;;;;;;;5.46;67.35;100564.88;5000512;28;20042;-73
2022/12/09 02:02:40;;;;;;;19.65;17.17;;;;;;;5.45;67.21;100559.75;5006864;28;20038;-68
2022/12/09 02:05:06;;;;;;;22.20;19.98;;;;;;;5.46;67.38;100564.06;5013698;28;20030;-69
2022/12/09 02:07:32;;;;;;;31.25;22.60;;;;;;;5.45;67.12;100557.91;5003217;28;20030;-69
2022/12/09 02:09:58;;;;;;;17.80;16.35;;;;;;;5.45;67.51;100557.91;5003299;28;20111;-69
2022/12/09 02:12:36;;;;;;;23.42;19.85;;;;;;;5.46;67.12;100559.53;5013020;28;20045;-69
2022/12/09 02:15:12;;;;;;;18.45;16.75;;;;;;;5.45;67.50;100563.25;4998829;28;20524;-67
2022/12/09 02:17:49;;;;;;;20.95;18.80;;;;;;;5.45;67.40;100562.44;5010335;28;20029;-69
2022/12/09 02:20:38;;;;;;;18.08;15.88;;;;;;;5.44;67.41;100566.97;5005217;28;20042;-73
2022/12/09 02:23:23;;;;;;;22.30;20.08;;;;;;;5.43;67.49;100560.78;5002334;28;20053;-70
2022/12/09 02:26:04;;;;;;;19.85;16.92;;;;;;;5.43;67.47;100568.00;5005192;28;20030;-68
2022/12/09 02:28:47;;;;;;;21.90;19.02;;;;;;;5.43;67.29;100568.00;5010716;28;20032;-71
2022/12/09 02:31:23;;;;;;;17.08;15.57;;;;;;;5.43;67.20;100566.13;5007528;28;20052;-68
2022/12/09 02:34:03;;;;;;;19.67;16.27;;;;;;;5.42;67.21;100569.06;5009079;28;20033;-71
2022/12/09 02:36:35;;;;;;;27.20;22.77;;;;;;;5.42;67.42;100566.38;5009252;28;20116;-69
2022/12/09 02:39:02;;;;;;;21.75;17.98;;;;;;;5.43;67.25;100568.00;5003961;28;20092;-68
2022/12/09 02:41:31;;;;;;;21.00;18.52;;;;;;;5.43;67.20;100557.28;4999594;28;20118;-69
2022/12/09 02:44:09;;;;;;;23.02;17.63;;;;;;;5.43;67.15;100557.28;5001353;28;20453;-68
2022/12/09 02:46:35;;;;;;;28.23;20.80;;;;;;;5.42;67.33;100564.50;5011212;28;20022;-68
2022/12/09 02:49:01;;;;;;;17.27;15.52;;;;;;;5.42;67.32;100558.34;5011032;28;20383;-67
2022/12/09 02:51:30;;;;;;;23.35;19.35;;;;;;;5.42;67.42;100550.31;5007167;28;20026;-71
2022/12/09 02:54:05;;;;;;;27.02;21.40;;;;;;;5.43;67.32;100560.78;5003890;28;20025;-69
2022/12/09 02:56:33;;;;;;;23.48;19.15;;;;;;;5.42;67.44;100548.44;4996043;28;20352;-67
2022/12/09 02:58:58;;;;;;;21.65;19.35;;;;;;;5.43;67.22;100549.25;5002991;28;20033;-71
2022/12/09 03:01:56;;;;;;;20.05;17.60;;;;;;;5.43;67.41;100549.25;5002390;28;20049;-69
2022/12/09 03:04:25;;;;;;;18.42;16.83;;;;;;;5.41;67.18;100546.78;5007588;28;20030;-68
2022/12/09 03:06:53;;;;;;;26.38;17.13;;;;;;;5.42;67.36;100550.31;5008070;28;20034;-69
2022/12/09 03:09:31;;;;;;;15.70;14.70;;;;;;;5.42;67.49;100547.63;5008349;28;20046;-68
2022/12/09 03:12:04;;;;;;;21.05;18.08;;;;;;;5.42;67.35;100547.63;5009994;28;20045;-71
2022/12/09 03:14:52;;;;;;;20.08;16.70;;;;;;;5.41;67.20;100543.28;5007655;28;20037;-68
2022/12/09 03:17:32;;;;;;;32.72;22.88;;;;;;;5.41;67.27;100540.59;5003487;28;20034;-69
2022/12/09 03:20:12;;;;;;;20.75;18.10;;;;;;;5.41;67.32;100536.06;4999269;28;20037;-68
2022/12/09 03:22:40;;;;;;;27.75;20.85;;;;;;;5.41;67.36;100538.75;5009684;28;20033;-69
2022/12/09 03:25:11;;;;;;;19.85;17.85;;;;;;;5.42;67.40;100545.75;4996983;28;20026;-69
2022/12/09 03:27:45;;;;;;;28.23;20.13;;;;;;;5.41;67.40;100530.69;5016888;28;20062;-73
2022/12/09 03:30:11;;;;;;;16.38;15.10;;;;;;;5.41;67.25;100530.69;4998487;28;20034;-68
2022/12/09 03:32:39;;;;;;;23.67;19.70;;;;;;;5.42;67.34;100529.69;5004089;28;20038;-68
2022/12/09 03:35:12;;;;;;;19.95;18.08;;;;;;;5.41;67.38;100532.56;4992795;28;20092;-68
2022/12/09 03:37:40;;;;;;;25.55;20.10;;;;;;;5.42;67.58;100526.19;5019181;28;20034;-69
2022/12/09 03:40:10;;;;;;;22.55;16.52;;;;;;;5.41;67.09;100524.53;5007576;28;20030;-69
2022/12/09 03:42:46;;;;;;;23.23;19.55;;;;;;;5.42;67.62;100518.16;4990900;28;20022;-69
2022/12/09 03:45:15;;;;;;;18.90;17.38;;;;;;;5.41;67.27;100514.63;5003567;28;20030;-69
2022/12/09 03:47:41;;;;;;;;;;;;;;;5.41;67.43;100517.31;5009310;28;20029;-69
2022/12/09 03:50:07;;;;;;;18.63;17.00;;;;;;;5.40;67.19;100518.34;5012777;28;19924;-68
2022/12/09 03:52:49;;;;;;;22.80;19.70;;;;;;;5.39;67.42;100521.25;5013902;28;20034;-70
2022/12/09 03:55:24;;;;;;;18.58;16.00;;;;;;;5.40;67.39;100520.22;4996865;28;20533;-70
2022/12/09 03:57:53;;;;;;;18.30;16.45;;;;;;;5.39;67.41;100522.09;5008826;28;20018;-69
2022/12/09 04:00:18;;;;;;;21.13;18.67;;;;;;;5.40;67.54;100522.91;5011894;28;20529;-69
2022/12/09 04:02:44;;;;;;;22.08;18.27;;;;;;;5.40;67.37;100522.91;5011908;28;20157;-71
2022/12/09 04:05:09;;;;;;;20.08;17.90;;;;;;;5.39;67.14;100519.41;5009493;28;20080;-70
2022/12/09 04:07:35;;;;;;;21.27;17.33;;;;;;;5.40;67.53;100517.53;4997408;28;20039;-69
2022/12/09 04:10:00;;;;;;;19.42;17.35;;;;;;;5.41;67.46;100516.50;5012827;28;20065;-70
2022/12/09 04:12:26;;;;;;;18.73;16.83;;;;;;;5.41;67.28;100522.66;5014050;28;20030;-73
2022/12/09 04:14:51;;;;;;;20.77;18.55;;;;;;;5.40;67.32;100518.34;5010092;28;20045;-69
2022/12/09 04:17:16;;;;;;;18.38;16.48;;;;;;;5.40;67.44;100520.22;5010164;28;20026;-69
2022/12/09 04:19:42;;;;;;;18.45;16.52;;;;;;;5.40;67.46;100518.34;5012376;28;20040;-70
2022/12/09 04:22:07;;;;;;;17.38;15.95;;;;;;;5.41;67.42;100514.63;5004984;28;20042;-69
2022/12/09 04:24:32;;;;;;;24.80;19.83;;;;;;;5.40;67.25;100513.00;5019712;28;20067;-69
2022/12/09 04:26:58;;;;;;;19.02;17.25;;;;;;;5.41;67.10;100521.84;5018765;28;20037;-69
2022/12/09 04:29:23;;;;;;;17.13;15.43;;;;;;;5.40;67.05;100518.34;5003717;28;20030;-69
2022/12/09 04:31:48;;;;;;;18.38;16.70;;;;;;;5.40;67.00;100521.03;5007239;28;20698;-69
2022/12/09 04:34:14;;;;;;;19.65;17.67;;;;;;;5.41;67.44;100516.50;5013407;28;20569;-69
2022/12/09 04:36:39;;;;;;;17.08;15.63;;;;;;;5.41;67.05;100519.16;5008747;28;20546;-70
2022/12/09 04:39:04;;;;;;;18.55;16.88;;;;;;;5.40;67.01;100515.69;4996894;28;20069;-68
2022/12/09 04:41:30;;;;;;;19.00;17.38;;;;;;;5.41;67.33;100521.84;5009758;28;20037;-71
2022/12/09 04:43:55;;;;;;;19.83;16.73;;;;;;;5.40;67.35;100512.19;5012788;28;20064;-71
2022/12/09 04:46:21;;;;;;;20.83;18.80;;;;;;;5.40;67.43;100513.00;5009791;28;20038;-69
2022/12/09 04:48:46;;;;;;;21.60;18.10;;;;;;;5.40;67.46;100509.50;5006359;28;20046;-69
2022/12/09 04:51:13;;;;;;;20.15;17.30;;;;;;;5.40;67.14;100514.88;5013395;28;20489;-69
2022/12/09 04:53:38;;;;;;;20.10;18.05;;;;;;;5.40;67.51;100513.00;5002121;28;20038;-71
2022/12/09 04:56:17;;;;;;;17.95;16.30;;;;;;;5.40;67.43;100518.34;5018038;28;20040;-69
2022/12/09 04:58:43;;;;;;;19.20;17.15;;;;;;;5.40;67.20;100512.19;5010152;28;20029;-68
2022/12/09 05:01:12;;;;;;;15.82;14.73;;;;;;;5.39;67.30;100506.00;5025727;28;20037;-68
2022/12/09 05:03:38;;;;;;;17.80;16.40;;;;;;;5.38;67.02;100512.38;5013367;28;20124;-68
2022/12/09 05:06:05;;;;;;;17.08;15.73;;;;;;;5.40;67.48;100514.88;5013126;28;20172;-69
2022/12/09 05:08:30;;;;;;;26.98;18.05;;;;;;;5.39;67.07;100516.72;5003523;28;20077;-69
2022/12/09 05:10:56;;;;;;;19.00;17.27;;;;;;;5.40;67.27;100522.91;5004784;28;20077;-67
2022/12/09 05:13:21;;;;;;;17.67;15.95;;;;;;;5.39;67.13;100516.72;5010324;28;20060;-70
2022/12/09 05:15:46;;;;;;;20.63;18.38;;;;;;;5.39;67.24;100522.09;5011608;28;20497;-69
2022/12/09 05:18:12;;;;;;;20.33;18.33;;;;;;;5.39;67.35;100521.25;5012854;28;20046;-69
2022/12/09 05:20:38;;;;;;;23.70;17.42;;;;;;;5.38;67.33;100514.25;5012421;28;20045;-69
2022/12/09 05:23:04;;;;;;;17.60;16.02;;;;;;;5.38;67.25;100519.59;5007546;28;20036;-70
2022/12/09 05:25:29;;;;;;;20.90;18.55;;;;;;;5.38;67.05;100519.59;5004792;28;20080;-69
2022/12/09 05:27:55;;;;;;;18.67;17.15;;;;;;;5.38;67.19;100514.25;5010827;28;20558;-70
2022/12/09 05:30:20;;;;;;;17.48;15.95;;;;;;;5.38;67.20;100511.56;5012048;28;20038;-69
2022/12/09 05:32:45;;;;;;;20.10;17.80;;;;;;;5.38;67.30;100514.25;5010985;28;20034;-69
2022/12/09 05:35:11;;;;;;;17.95;16.20;;;;;;;5.38;67.49;100515.06;5007805;28;21017;-70
2022/12/09 05:37:36;;;;;;;16.92;15.50;;;;;;;5.38;67.40;100515.06;4998950;28;20042;-73
2022/12/09 05:40:02;;;;;;;17.50;15.95;;;;;;;5.38;67.12;100511.56;5006862;28;20040;-69
2022/12/09 05:42:27;;;;;;;18.23;16.45;;;;;;;5.36;67.51;100511.78;5012573;28;20033;-69
2022/12/09 05:44:53;;;;;;;25.63;18.02;;;;;;;5.37;67.48;100510.75;5009461;28;20037;-69
2022/12/09 05:47:19;;;;;;;21.27;18.92;;;;;;;5.37;67.16;100521.47;5000531;28;20061;-70
2022/12/09 05:49:44;;;;;;;17.98;16.10;;;;;;;5.38;66.98;100519.59;5006455;28;20087;-69
2022/12/09 05:52:12;;;;;;;19.67;17.63;;;;;;;5.37;67.25;100521.47;4999403;28;20446;-68
2022/12/09 05:54:38;;;;;;;20.10;18.23;;;;;;;5.37;67.45;100515.31;5008072;28;20040;-73
2022/12/09 05:57:03;;;;;;;17.55;15.98;;;;;;;5.38;67.35;100516.94;5010476;28;20124;-68
2022/12/09 05:59:29;;;;;;;18.65;16.88;;;;;;;5.37;67.46;100508.06;5021584;28;20892;-68
2022/12/09 06:01:54;;;;;;;23.80;21.17;;;;;;;5.37;67.51;100512.63;5008258;28;20049;-69
2022/12/09 06:04:20;;;;;;;20.02;16.25;;;;;;;5.37;67.16;100501.91;5011291;28;20038;-68
2022/12/09 06:06:45;;;;;;;20.45;17.40;;;;;;;5.38;67.28;100500.84;5011114;28;20030;-69
2022/12/09 06:09:11;;;;;;;20.33;16.45;;;;;;;5.37;67.12;100501.91;5005773;28;20521;-69
2022/12/09 06:11:37;;;;;;;21.70;17.50;;;;;;;5.37;67.08;100501.91;5001712;28;20042;-68
2022/12/09 06:14:04;;;;;;;20.92;17.00;;;;;;;5.38;67.23;100500.84;5002652;28;20046;-69
2022/12/09 06:16:29;;;;;;;17.20;15.60;;;;;;;5.36;67.18;100498.38;5010446;28;20030;-70
2022/12/09 06:18:55;;;;;;;22.23;20.02;;;;;;;5.36;67.44;100495.69;5008841;28;20049;-70
2022/12/09 06:21:21;;;;;;;22.65;16.17;;;;;;;5.36;67.35;100500.25;5008538;28;20034;-70
2022/12/09 06:23:47;;;;;;;20.50;18.50;;;;;;;5.37;67.12;100499.22;5009362;28;20038;-69
2022/12/09 06:26:22;;;;;;;16.80;15.40;;;;;;;5.36;67.41;100498.38;5010928;28;20423;-70
2022/12/09 06:28:47;;;;;;;18.02;15.25;;;;;;;5.36;67.10;100506.41;5007300;28;20040;-69
2022/12/09 06:31:13;;;;;;;17.73;16.02;;;;;;;5.36;67.27;100501.06;5000140;28;20030;-68
2022/12/09 06:33:39;;;;;;;21.33;19.00;;;;;;;5.36;67.10;100502.91;5009134;28;20033;-69
2022/12/09 06:36:05;;;;;;;18.27;16.50;;;;;;;5.37;67.29;100504.59;5011088;28;20050;-69
2022/12/09 06:38:31;;;;;;;17.95;16.38;;;;;;;5.37;67.02;100507.25;5016376;28;20037;-69
2022/12/09 06:40:56;;;;;;;20.42;18.40;;;;;;;5.35;67.40;100504.78;5004739;28;20145;-72
2022/12/09 06:43:22;;;;;;;21.75;16.45;;;;;;;5.36;67.34;100500.25;5006766;28;20040;-69
2022/12/09 06:45:47;;;;;;;19.67;17.92;;;;;;;5.35;67.19;100504.78;5009396;28;20070;-68
2022/12/09 06:48:12;;;;;;;26.02;19.33;;;;;;;5.35;67.28;100503.97;5011952;28;20040;-67
2022/12/09 06:50:38;;;;;;;19.73;17.65;;;;;;;5.34;67.25;100505.00;5009124;28;20117;-68
2022/12/09 06:53:04;;;;;;;23.52;18.38;;;;;;;5.35;67.34;100509.31;5008782;28;20465;-67
2022/12/09 06:55:29;;;;;;;18.67;16.70;;;;;;;5.34;67.49;100500.47;5006128;28;20025;-68
2022/12/09 06:57:57;;;;;;;23.67;20.70;;;;;;;5.35;67.12;100495.94;5010135;28;20107;-69
2022/12/09 07:00:22;;;;;;;27.67;18.75;;;;;;;5.35;67.30;100503.97;5004998;28;20028;-67
2022/12/09 07:02:47;;;;;;;22.17;16.42;;;;;;;5.35;66.95;100510.16;5000674;28;20106;-72
2022/12/09 07:05:13;;;;;;;23.98;19.23;;;;;;;5.34;66.98;100505.84;5010488;28;20030;-68
2022/12/09 07:07:38;;;;;;;20.15;17.67;;;;;;;5.34;66.98;100508.50;5009997;28;20359;-67
2022/12/09 07:10:05;;;;;;;22.00;17.20;;;;;;;5.34;67.11;100508.50;5019890;28;20477;-68
2022/12/09 07:12:31;;;;;;;18.27;16.02;;;;;;;5.33;67.24;100514.06;5010037;28;20038;-70
2022/12/09 07:14:56;;;;;;;21.02;18.63;;;;;;;5.33;67.17;100509.53;5004882;28;20377;-66
2022/12/09 07:17:21;;;;;;;21.17;18.45;;;;;;;5.33;67.20;100509.53;5006032;28;20169;-71
2022/12/09 07:19:47;;;;;;;21.13;19.05;;;;;;;5.33;67.31;100514.88;5008403;28;20042;-73
2022/12/09 07:22:13;;;;;;;19.08;16.45;;;;;;;5.33;67.33;100514.88;5000795;28;20022;-67
2022/12/09 07:24:39;;;;;;;24.27;18.23;;;;;;;5.34;67.37;100515.69;5007142;28;20053;-69
2022/12/09 07:27:06;;;;;;;26.55;19.33;;;;;;;5.34;67.55;100523.72;4997947;28;20483;-69
2022/12/09 07:29:33;;;;;;;23.83;17.70;;;;;;;5.33;67.00;100520.25;5006424;28;20057;-70
2022/12/09 07:31:58;;;;;;;20.10;18.17;;;;;;;5.32;67.23;100523.97;5008315;28;20441;-68
2022/12/09 07:34:24;;;;;;;17.88;16.15;;;;;;;5.32;67.14;100526.66;5006950;28;20057;-67
2022/12/09 07:36:49;;;;;;;23.77;18.70;;;;;;;5.32;66.96;100525.81;5004526;28;20041;-72
2022/12/09 07:39:16;;;;;;;20.23;18.42;;;;;;;5.31;67.31;100529.53;5014107;28;20038;-68
2022/12/09 07:41:42;;;;;;;20.58;18.75;;;;;;;5.31;67.35;100529.53;5013440;28;20381;-69
2022/12/09 07:44:08;;;;;;;20.75;17.83;;;;;;;5.31;66.96;100535.69;5013162;28;20038;-68
2022/12/09 07:46:33;;;;;;;19.05;16.63;;;;;;;5.31;67.33;100537.56;5012669;28;20108;-68
2022/12/09 07:49:01;;;;;;;18.67;16.88;;;;;;;5.30;67.11;100533.25;5007733;28;20105;-68
2022/12/09 07:51:28;;;;;;;21.40;18.02;;;;;;;5.30;67.23;100539.44;5022972;28;20030;-69
2022/12/09 07:53:53;;;;;;;23.02;17.40;;;;;;;5.30;67.28;100543.97;5011122;28;20157;-69
2022/12/09 07:56:19;;;;;;;24.40;19.55;;;;;;;5.29;67.34;100540.47;5013619;28;20463;-67
2022/12/09 07:58:46;;;;;;;17.92;16.42;;;;;;;5.31;67.21;100537.56;5012437;28;20117;-69
2022/12/09 08:01:17;;;;;;;22.30;17.33;;;;;;;5.30;67.39;100533.25;5005642;28;20139;-69
2022/12/09 08:03:43;;;;;;;23.10;18.90;;;;;;;5.29;67.14;100537.78;5014587;28;20470;-70
2022/12/09 08:06:14;;;;;;;22.20;20.00;;;;;;;5.30;67.26;100538.59;5013631;28;20028;-68
2022/12/09 08:08:40;;;;;;;20.52;18.27;;;;;;;5.30;67.24;100546.63;5011657;28;20133;-68
2022/12/09 08:11:25;;;;;;;21.35;19.42;;;;;;;5.29;67.07;100539.63;5011966;28;20113;-68
2022/12/09 08:13:52;;;;;;;18.08;16.25;;;;;;;5.28;67.22;100538.81;4994566;28;20030;-70
2022/12/09 08:16:19;;;;;;;21.25;18.98;;;;;;;5.28;67.24;100544.16;5010925;28;20156;-69
2022/12/09 08:18:45;;;;;;;27.25;19.75;;;;;;;5.28;67.23;100538.81;5011153;28;20037;-70
2022/12/09 08:21:13;;;;;;;27.15;21.27;;;;;;;5.28;67.31;100543.34;5008215;28;20161;-70
2022/12/09 08:23:39;;;;;;;25.48;18.42;;;;;;;5.28;67.20;100535.31;5012487;28;20045;-70
2022/12/09 08:26:05;;;;;;;22.42;20.20;;;;;;;5.28;67.11;100532.63;5008899;28;20034;-68
2022/12/09 08:28:31;;;;;;;22.60;20.38;;;;;;;5.27;67.27;100536.34;5007521;28;20058;-70
2022/12/09 08:30:57;;;;;;;21.35;18.45;;;;;;;5.27;67.04;100539.03;5008651;28;20069;-74
2022/12/09 08:33:22;;;;;;;20.27;18.25;;;;;;;5.27;66.95;100537.19;5009403;28;20394;-67
2022/12/09 08:35:47;;;;;;;22.10;19.80;;;;;;;5.26;66.90;100535.50;5002502;28;20049;-69
2022/12/09 08:38:13;;;;;;;21.88;19.58;;;;;;;5.26;66.96;100538.19;5007484;28;20050;-68
2022/12/09 08:40:39;;;;;;;22.95;20.50;;;;;;;5.26;67.10;100538.19;5010233;28;20441;-73
2022/12/09 08:43:08;;;;;;;31.40;21.88;;;;;;;5.26;67.23;100535.50;5007939;28;20407;-68
2022/12/09 08:45:38;;;;;;;21.30;18.10;;;;;;;5.27;67.12;100539.03;5007524;28;20050;-67
2022/12/09 08:48:05;;;;;;;26.40;21.17;;;;;;;5.26;67.32;100524.00;5009157;28;20045;-68
2022/12/09 08:50:30;;;;;;;26.63;18.85;;;;;;;5.26;67.42;100534.69;5008670;28;20045;-67
2022/12/09 08:52:56;;;;;;;19.73;17.58;;;;;;;5.26;67.32;100529.34;5010967;28;21740;-67
2022/12/09 08:55:21;;;;;;;23.83;18.83;;;;;;;5.26;67.05;100526.66;5006425;28;20410;-69
2022/12/09 08:57:46;;;;;;;20.92;17.08;;;;;;;5.26;66.90;100524.81;5008510;28;20073;-70
2022/12/09 09:00:12;;;;;;;19.73;17.48;;;;;;;5.25;66.97;100531.19;5007431;28;20406;-72
2022/12/09 09:02:38;;;;;;;25.77;19.45;;;;;;;5.25;67.22;100531.19;5005099;28;20041;-67
2022/12/09 09:05:03;;;;;;;21.60;17.90;;;;;;;5.25;67.06;100527.72;5011063;28;20065;-69
2022/12/09 09:07:29;;;;;;;19.02;17.13;;;;;;;5.25;67.03;100538.44;5003415;28;20058;-67
2022/12/09 09:09:55;;;;;;;25.05;19.50;;;;;;;5.25;67.04;100543.78;5009660;28;20077;-68
2022/12/09 09:12:20;;;;;;;22.17;18.88;;;;;;;5.24;67.33;100545.63;5002700;28;20450;-72
2022/12/09 09:14:45;;;;;;;27.45;22.48;;;;;;;5.25;67.07;100546.47;5009160;28;21534;-69
2022/12/09 09:17:10;;;;;;;29.95;21.85;;;;;;;5.24;67.24;100542.97;5006714;28;20102;-69
2022/12/09 09:19:36;;;;;;;22.27;18.27;;;;;;;5.25;66.88;100544.59;5006964;28;20073;-70
2022/12/09 09:22:02;;;;;;;23.40;18.90;;;;;;;5.26;67.33;100553.44;5005774;28;20110;-73
2022/12/09 09:24:27;;;;;;;22.85;18.35;;;;;;;5.25;67.04;100549.13;5008288;28;20017;-70
2022/12/09 09:26:53;;;;;;;14.40;13.30;;;;;;;5.25;66.92;100557.97;5001673;28;20030;-68
2022/12/09 09:29:20;;;;;;;27.67;21.00;;;;;;;5.25;67.22;100557.97;5003729;28;20041;-69
2022/12/09 09:31:52;;;;;;;25.45;21.33;;;;;;;5.25;66.76;100559.84;5008276;28;20436;-69
2022/12/09 09:34:18;;;;;;;30.30;21.80;;;;;;;5.24;67.21;100563.53;5004965;28;20045;-68
2022/12/09 09:36:44;;;;;;;21.30;19.35;;;;;;;5.24;67.00;100563.53;5007109;28;20034;-69
2022/12/09 09:39:09;;;;;;;32.53;22.13;;;;;;;5.25;66.97;100559.84;5023244;28;20052;-68
2022/12/09 09:41:46;;;;;;;33.03;20.40;;;;;;;5.25;67.12;100557.16;5006280;28;20413;-73
2022/12/09 09:44:26;;;;;;;21.48;19.27;;;;;;;5.24;67.22;100563.53;5007476;28;20099;-68
2022/12/09 09:46:53;;;;;;;29.73;18.85;;;;;;;5.24;67.23;100559.03;5008169;28;20041;-68
2022/12/09 09:49:22;;;;;;;22.25;19.60;;;;;;;5.25;66.94;100566.03;5009924;28;20056;-68
2022/12/09 09:51:47;;;;;;;;;;;;;;;5.24;67.09;100567.06;5005122;28;20169;-68
2022/12/09 09:54:14;;;;;;;23.25;20.27;;;;;;;5.24;66.84;100558.19;5005282;28;20011;-69
2022/12/09 09:56:54;;;;;;;23.10;20.42;;;;;;;5.24;66.88;100560.88;5009272;28;20033;-69
2022/12/09 09:59:49;;;;;;;27.02;19.27;;;;;;;5.24;67.04;100556.34;5010427;28;20362;-69
2022/12/09 10:02:45;;;;;;;21.38;18.85;;;;;;;5.23;66.91;100557.38;5008927;28;20026;-68
2022/12/09 10:05:31;;;;;;;31.88;22.25;;;;;;;5.22;67.03;100558.41;5011326;28;20037;-69
2022/12/09 10:08:01;;;;;;;21.55;19.25;;;;;;;5.21;66.90;100554.88;5011224;28;20113;-69
2022/12/09 10:10:45;;;;;;;20.38;17.77;;;;;;;5.22;67.09;100547.69;5011203;28;20038;-68
2022/12/09 10:13:16;;;;;;;24.25;20.55;;;;;;;5.23;67.08;100548.53;5011283;28;20541;-69
2022/12/09 10:15:52;;;;;;;26.10;19.17;;;;;;;5.23;67.16;100559.22;5011892;28;20168;-68
2022/12/09 10:18:29;;;;;;;30.65;24.13;;;;;;;5.22;67.25;100547.69;5010677;28;20032;-70
2022/12/09 10:20:55;;;;;;;23.10;18.83;;;;;;;5.23;67.10;100552.00;5011012;28;20125;-69
2022/12/09 10:23:22;;;;;;;25.48;20.02;;;;;;;5.23;67.17;100543.16;5008444;28;20037;-68
2022/12/09 10:25:54;;;;;;;22.65;17.23;;;;;;;5.24;67.20;100552.81;5012941;28;20042;-69
2022/12/09 10:28:32;;;;;;;25.98;20.75;;;;;;;5.25;66.80;100543.78;5011046;28;20030;-69
2022/12/09 10:30:57;;;;;;;24.45;19.50;;;;;;;5.24;67.17;100551.00;4992842;28;20026;-67
2022/12/09 10:33:28;;;;;;;30.77;19.92;;;;;;;5.24;66.93;100548.31;5009422;28;20036;-69
2022/12/09 10:35:53;;;;;;;20.13;18.25;;;;;;;5.25;67.10;100546.47;5009268;28;20037;-69
2022/12/09 10:38:20;;;;;;;23.45;20.95;;;;;;;5.24;67.22;100540.28;5010969;28;20140;-68
2022/12/09 10:40:46;;;;;;;23.60;19.23;;;;;;;5.26;66.95;100543.53;5011466;28;20034;-69
2022/12/09 10:43:34;;;;;;;20.33;18.27;;;;;;;5.25;66.89;100539.25;5010516;28;20040;-69
2022/12/09 10:46:01;;;;;;;20.88;16.73;;;;;;;5.26;67.13;100542.72;5016897;28;20044;-68
2022/12/09 10:48:34;;;;;;;21.98;18.63;;;;;;;5.26;66.92;100542.72;5008912;28;20064;-67
2022/12/09 10:51:16;;;;;;;21.88;19.65;;;;;;;5.25;67.04;100536.56;5011352;28;20437;-68
2022/12/09 10:53:44;;;;;;;21.70;16.58;;;;;;;5.27;67.29;100533.69;5011397;28;20033;-68
2022/12/09 10:56:18;;;;;;;25.35;19.90;;;;;;;5.27;66.90;100537.19;5011112;28;20025;-73
2022/12/09 10:58:43;;;;;;;21.63;19.33;;;;;;;5.28;66.84;100543.34;5009614;28;20544;-68
2022/12/09 11:01:12;;;;;;;23.95;19.60;;;;;;;5.27;67.21;100536.34;5011169;28;20026;-68
2022/12/09 11:03:52;;;;;;;25.13;17.58;;;;;;;5.28;66.99;100540.66;5011392;28;20033;-69
2022/12/09 11:06:17;;;;;;;25.05;20.55;;;;;;;5.28;67.09;100530.78;5010319;28;20033;-72
2022/12/09 11:08:50;;;;;;;20.70;18.75;;;;;;;5.28;67.14;100530.78;5010074;28;20042;-69
2022/12/09 11:11:17;;;;;;;19.52;17.60;;;;;;;5.29;67.17;100528.91;5014963;28;20076;-69
2022/12/09 11:13:42;;;;;;;19.48;17.88;;;;;;;5.28;67.04;100530.78;5015623;28;20478;-68
2022/12/09 11:16:09;;;;;;;17.65;16.08;;;;;;;5.30;67.32;100538.59;5016281;28;20068;-68
2022/12/09 11:18:42;;;;;;;21.08;16.35;;;;;;;5.30;67.23;100525.22;5013646;28;20061;-69
2022/12/09 11:21:28;;;;;;;30.92;18.83;;;;;;;5.30;67.03;100530.56;4998024;28;20110;-68
2022/12/09 11:23:54;;;;;;;26.25;18.65;;;;;;;5.30;67.33;100527.91;5015416;28;20440;-69